Time;durP1;ratioP1;P1;durP2;ratioP2;P2;SDS_P1;SDS_P2;PMS_P1;PMS_P2;Temp;Humidity;BMP_temperature;BMP_pressure;BME280_temperature;BME280_humidity;BME280_pressure;Samples;Min_cycle;Max_cycle;Signal;HPM_P1;HPM_P2
2024/01/11 00:01:19;;;;;;;0.30;0.30;;;1.20;99.70;;;;;;4935766;29;20665;-63
2024/01/11 00:03:45;;;;;;;0.30;0.30;;;1.20;99.70;;;;;;4931459;29;20201;-63
2024/01/11 00:06:10;;;;;;;0.40;0.40;;;1.20;99.80;;;;;;4916966;29;20729;-63
2024/01/11 00:08:36;;;;;;;2.63;0.93;;;1.30;99.80;;;;;;4916894;29;20182;-63
2024/01/11 00:11:02;;;;;;;0.40;0.40;;;1.40;99.70;;;;;;4916469;29;20476;-63
2024/01/11 00:13:27;;;;;;;0.73;0.73;;;1.40;99.70;;;;;;4916696;29;20201;-63
2024/01/11 00:15:53;;;;;;;2.00;0.90;;;1.50;99.70;;;;;;4916665;29;20217;-63
2024/01/11 00:18:19;;;;;;;0.40;0.40;;;1.60;99.50;;;;;;4916628;29;20710;-63
2024/01/11 00:20:45;;;;;;;0.30;0.30;;;1.60;99.40;;;;;;4916496;29;20181;-63
2024/01/11 00:23:10;;;;;;;0.40;0.40;;;1.60;99.30;;;;;;4916278;29;20193;-63
2024/01/11 00:25:36;;;;;;;0.30;0.30;;;1.40;98.80;;;;;;4916543;29;20212;-63
2024/01/11 00:28:02;;;;;;;0.50;0.50;;;1.30;98.90;;;;;;4916558;29;20177;-63
2024/01/11 00:30:28;;;;;;;1.50;1.40;;;1.20;99.00;;;;;;4916392;29;20179;-63
2024/01/11 00:32:53;;;;;;;0.60;0.60;;;1.10;99.20;;;;;;4916149;29;20561;-63
2024/01/11 00:35:19;;;;;;;1.23;1.23;;;1.10;99.30;;;;;;4916224;29;20208;-63
2024/01/11 00:37:45;;;;;;;1.23;0.50;;;1.10;99.40;;;;;;4916752;29;20193;-63
2024/01/11 00:40:11;;;;;;;0.40;0.40;;;1.00;99.10;;;;;;4916002;29;20643;-63
2024/01/11 00:42:36;;;;;;;0.90;0.70;;;0.90;99.20;;;;;;4915535;29;20453;-63
2024/01/11 00:45:02;;;;;;;0.40;0.40;;;0.90;99.50;;;;;;4916283;29;20799;-63
2024/01/11 00:47:28;;;;;;;0.30;0.30;;;0.90;99.60;;;;;;4916164;29;20185;-63
2024/01/11 00:49:53;;;;;;;0.67;0.67;;;0.80;99.60;;;;;;4916047;29;20182;-63
2024/01/11 00:52:19;;;;;;;0.40;0.40;;;0.80;99.70;;;;;;4915653;29;20256;-63
2024/01/11 00:54:45;;;;;;;0.30;0.30;;;0.80;99.50;;;;;;4915849;29;20215;-63
2024/01/11 00:57:10;;;;;;;0.43;0.43;;;0.80;99.70;;;;;;4916136;29;20657;-63
2024/01/11 00:59:36;;;;;;;0.50;0.50;;;0.80;99.40;;;;;;4915930;29;20548;-63
2024/01/11 01:02:02;;;;;;;0.50;0.50;;;0.70;99.30;;;;;;4915576;29;20197;-63
2024/01/11 01:04:27;;;;;;;0.47;0.47;;;0.60;99.00;;;;;;4927081;29;20192;-63
2024/01/11 01:06:53;;;;;;;0.70;0.70;;;0.60;99.10;;;;;;4934843;29;20183;-63
2024/01/11 01:09:18;;;;;;;0.30;0.30;;;0.50;99.10;;;;;;4934947;29;20262;-63
2024/01/11 01:11:44;;;;;;;0.90;0.90;;;0.50;99.20;;;;;;4934408;29;20186;-63
2024/01/11 01:14:10;;;;;;;0.30;0.30;;;0.50;99.40;;;;;;4934667;29;20190;-63
2024/01/11 01:16:35;;;;;;;2.80;0.73;;;0.60;99.40;;;;;;4934443;29;20243;-63
2024/01/11 01:19:01;;;;;;;0.40;0.40;;;0.60;99.40;;;;;;4934639;29;20174;-63
2024/01/11 01:21:27;;;;;;;0.47;0.47;;;0.60;99.20;;;;;;4934374;29;20179;-63
2024/01/11 01:23:53;;;;;;;0.40;0.40;;;0.50;99.10;;;;;;4934305;29;20241;-63
2024/01/11 01:26:19;;;;;;;0.57;0.57;;;0.50;98.70;;;;;;4934713;29;20269;-63
2024/01/11 01:28:45;;;;;;;0.50;0.50;;;0.30;98.60;;;;;;4934536;29;20210;-63
2024/01/11 01:31:12;;;;;;;2.10;0.70;;;0.20;98.50;;;;;;4934206;29;20591;-63
2024/01/11 01:33:38;;;;;;;1.75;1.65;;;0.20;98.60;;;;;;4934276;29;20210;-63
2024/01/11 01:36:04;;;;;;;1.37;1.27;;;0.10;98.80;;;;;;4934299;29;20281;-63
2024/01/11 01:38:30;;;;;;;1.13;1.13;;;0.10;98.60;;;;;;4934329;29;20756;-63
2024/01/11 01:40:56;;;;;;;2.75;1.70;;;0.00;98.30;;;;;;4933967;29;20411;-63
2024/01/11 01:43:21;;;;;;;2.87;2.50;;;-0.20;98.00;;;;;;4934197;29;20241;-63
2024/01/11 01:45:47;;;;;;;0.70;0.70;;;-0.20;97.60;;;;;;4934274;29;20198;-63
2024/01/11 01:48:13;;;;;;;2.35;2.15;;;-0.30;97.70;;;;;;4934264;29;20177;-63
2024/01/11 01:50:39;;;;;;;1.80;1.70;;;-0.50;97.60;;;;;;4934101;29;20182;-62
2024/01/11 01:53:04;;;;;;;2.13;1.57;;;-0.70;97.60;;;;;;4936485;29;20214;-63
2024/01/11 01:55:31;;;;;;;1.00;1.00;;;-0.80;97.50;;;;;;4938087;29;20465;-63
2024/01/11 01:57:58;;;;;;;1.77;1.67;;;-1.00;97.50;;;;;;4938221;29;20172;-63
2024/01/11 02:00:25;;;;;;;2.47;1.55;;;-1.10;97.40;;;;;;4937910;29;20178;-63
2024/01/11 02:02:52;;;;;;;1.67;1.23;;;-1.20;97.70;;;;;;4937917;29;20217;-63
2024/01/11 02:05:18;;;;;;;1.88;1.77;;;-1.20;97.80;;;;;;4937917;29;20268;-63
2024/01/11 02:07:44;;;;;;;5.07;4.68;;;-1.20;97.90;;;;;;4938029;29;20615;-63
2024/01/11 02:10:10;;;;;;;3.20;3.13;;;-1.30;97.80;;;;;;4937794;29;20265;-63
2024/01/11 02:12:37;;;;;;;10.03;3.47;;;-1.40;97.80;;;;;;4937774;29;20285;-62
2024/01/11 02:15:03;;;;;;;1.45;0.88;;;-1.40;97.70;;;;;;4937904;29;20209;-63
2024/01/11 02:17:30;;;;;;;4.20;3.90;;;-1.40;97.80;;;;;;4937902;29;20233;-63
2024/01/11 02:19:56;;;;;;;6.07;2.83;;;-1.50;97.90;;;;;;4937600;29;20178;-63
2024/01/11 02:22:28;;;;;;;2.27;2.17;;;-1.50;98.00;;;;;;4937437;29;20242;-62
2024/01/11 02:24:54;;;;;;;8.63;1.45;;;-1.60;98.00;;;;;;4937761;29;20174;-63
2024/01/11 02:27:19;;;;;;;2.70;2.53;;;-1.60;98.00;;;;;;4937730;29;20572;-63
2024/01/11 02:29:45;;;;;;;0.60;0.60;;;-1.60;98.00;;;;;;4937529;29;20174;-63
2024/01/11 02:32:11;;;;;;;1.27;1.17;;;-1.60;98.00;;;;;;4937249;29;20186;-63
2024/01/11 02:34:37;;;;;;;3.20;2.95;;;-1.60;98.10;;;;;;4937458;29;20177;-63
2024/01/11 02:37:04;;;;;;;0.40;0.40;;;-1.60;98.20;;;;;;4937653;29;20591;-63
2024/01/11 02:39:30;;;;;;;0.98;0.93;;;-1.70;98.30;;;;;;4937602;29;20162;-63
2024/01/11 02:41:57;;;;;;;1.13;1.10;;;-1.60;98.70;;;;;;4937005;29;20568;-63
2024/01/11 02:44:23;;;;;;;4.20;2.25;;;-1.60;99.00;;;;;;4937383;29;20405;-63
2024/01/11 02:46:49;;;;;;;1.27;1.27;;;-1.50;99.40;;;;;;4937650;29;20205;-63
2024/01/11 02:49:15;;;;;;;0.83;0.83;;;-1.40;99.30;;;;;;4937116;29;20201;-63
2024/01/11 02:51:40;;;;;;;0.40;0.40;;;-1.30;99.60;;;;;;4937066;29;20202;-63
2024/01/11 02:54:06;;;;;;;0.50;0.50;;;-1.20;99.30;;;;;;4937311;29;20210;-63
2024/01/11 02:56:32;;;;;;;4.17;3.93;;;-1.20;99.20;;;;;;4937266;29;20210;-63
2024/01/11 02:58:57;;;;;;;0.60;0.60;;;-1.20;99.10;;;;;;4937158;29;20687;-63
2024/01/11 03:01:23;;;;;;;0.60;0.60;;;-1.10;98.90;;;;;;4936835;29;20556;-63
2024/01/11 03:03:49;;;;;;;1.03;0.93;;;-1.10;99.10;;;;;;4935863;29;20689;-63
2024/01/11 03:06:14;;;;;;;1.10;1.10;;;-1.10;99.30;;;;;;4937231;29;20178;-63
2024/01/11 03:08:40;;;;;;;0.87;0.80;;;-1.10;99.20;;;;;;4935620;29;20681;-63
2024/01/11 03:11:06;;;;;;;0.30;0.30;;;-1.10;99.00;;;;;;4936626;29;20171;-63
2024/01/11 03:13:31;;;;;;;0.50;0.50;;;-1.00;98.80;;;;;;4936676;29;20274;-63
2024/01/11 03:15:57;;;;;;;1.87;1.73;;;-1.00;98.90;;;;;;4936654;29;20221;-63
2024/01/11 03:18:23;;;;;;;0.70;0.70;;;-1.00;98.80;;;;;;4936784;29;20171;-63
2024/01/11 03:20:48;;;;;;;0.30;0.30;;;-1.00;98.70;;;;;;4936538;29;20166;-63
2024/01/11 03:23:14;;;;;;;0.37;0.37;;;-1.00;98.60;;;;;;4936474;29;20198;-63
2024/01/11 03:25:39;;;;;;;0.40;0.40;;;-1.00;98.70;;;;;;4936612;29;20253;-63
2024/01/11 03:28:05;;;;;;;0.40;0.40;;;-1.00;98.70;;;;;;4936573;29;20688;-63
2024/01/11 03:30:31;;;;;;;0.40;0.40;;;-1.10;98.60;;;;;;4936409;29;20206;-63
2024/01/11 03:32:56;;;;;;;1.40;1.30;;;-1.10;98.90;;;;;;4936342;29;20277;-63
2024/01/11 03:35:22;;;;;;;0.40;0.40;;;-1.10;99.10;;;;;;4936547;29;20205;-63
2024/01/11 03:37:47;;;;;;;0.30;0.30;;;-1.10;99.30;;;;;;4936454;29;20175;-63
2024/01/11 03:40:14;;;;;;;2.13;1.87;;;-1.00;99.10;;;;;;4936232;29;20168;-63
2024/01/11 03:42:41;;;;;;;1.95;1.58;;;-1.10;98.50;;;;;;4935963;29;20202;-63
2024/01/11 03:45:07;;;;;;;4.45;1.75;;;-1.20;98.10;;;;;;4936264;29;20174;-63
2024/01/11 03:47:32;;;;;;;0.30;0.30;;;-1.40;97.60;;;;;;4936308;29;20178;-63
2024/01/11 03:49:58;;;;;;;1.57;1.47;;;-1.40;97.70;;;;;;4936201;29;20229;-63
2024/01/11 03:52:24;;;;;;;8.50;0.97;;;-1.50;97.80;;;;;;4935841;29;20210;-63
2024/01/11 03:54:49;;;;;;;2.87;1.80;;;-1.50;97.80;;;;;;4936141;29;20242;-63
2024/01/11 03:57:16;;;;;;;1.23;1.13;;;-1.60;98.00;;;;;;4935950;29;20261;-63
2024/01/11 03:59:42;;;;;;;1.77;1.25;;;-1.60;98.40;;;;;;4936232;29;20185;-63
2024/01/11 04:02:07;;;;;;;0.40;0.40;;;-1.70;98.70;;;;;;4935827;29;20563;-63
2024/01/11 04:04:33;;;;;;;1.40;1.30;;;-1.50;99.40;;;;;;4935972;29;20174;-63
2024/01/11 04:06:59;;;;;;;1.80;1.70;;;-1.40;99.80;;;;;;4936427;29;20174;-63
2024/01/11 04:09:25;;;;;;;0.40;0.40;;;-1.20;99.50;;;;;;4936137;29;20414;-63
2024/01/11 04:11:50;;;;;;;0.50;0.50;;;-1.20;99.40;;;;;;4935409;29;20258;-63
2024/01/11 04:14:16;;;;;;;2.00;1.90;;;-1.20;99.10;;;;;;4935784;29;20262;-63
2024/01/11 04:16:42;;;;;;;0.40;0.40;;;-1.30;98.60;;;;;;4935512;29;20226;-63
2024/01/11 04:19:09;;;;;;;2.35;2.10;;;-1.40;98.30;;;;;;4935618;29;20178;-63
2024/01/11 04:21:34;;;;;;;1.85;1.75;;;-1.40;98.40;;;;;;4935682;29;20182;-63
2024/01/11 04:24:00;;;;;;;1.90;1.80;;;-1.50;98.20;;;;;;4935604;29;20260;-63
2024/01/11 04:26:26;;;;;;;1.67;1.57;;;-1.70;98.00;;;;;;4935405;29;20178;-63
2024/01/11 04:28:52;;;;;;;4.57;4.20;;;-1.80;98.00;;;;;;4935515;29;20174;-63
2024/01/11 04:31:18;;;;;;;0.63;0.63;;;-1.80;97.80;;;;;;4935153;29;20206;-63
2024/01/11 04:33:45;;;;;;;0.77;0.77;;;-1.80;97.50;;;;;;4935384;29;20293;-63
2024/01/11 04:36:11;;;;;;;5.07;1.30;;;-1.90;97.40;;;;;;4935410;29;20198;-63
2024/01/11 04:38:37;;;;;;;4.65;2.45;;;-2.00;97.50;;;;;;4935375;29;20189;-63
2024/01/11 04:41:12;;;;;;;2.60;2.53;;;-2.00;97.50;;;;;;4934949;29;20170;-63
2024/01/11 04:43:39;;;;;;;0.55;0.55;;;-2.10;97.40;;;;;;4935170;29;20252;-63
2024/01/11 04:46:14;;;;;;;2.08;2.00;;;-2.20;97.40;;;;;;4935731;29;20198;-63
2024/01/11 04:48:40;;;;;;;1.92;1.77;;;-2.30;97.60;;;;;;4935222;29;20186;-63
2024/01/11 04:51:06;;;;;;;0.60;0.60;;;-2.30;97.60;;;;;;4934856;29;20470;-63
2024/01/11 04:53:31;;;;;;;0.60;0.60;;;-2.30;97.70;;;;;;4934800;29;20441;-63
2024/01/11 04:55:57;;;;;;;1.60;1.50;;;-2.30;97.60;;;;;;4935088;29;20458;-63
2024/01/11 04:58:23;;;;;;;2.30;2.23;;;-2.40;97.30;;;;;;4934978;29;20687;-63
2024/01/11 05:00:49;;;;;;;0.97;0.97;;;-2.40;97.50;;;;;;4934831;29;20257;-63
2024/01/11 05:03:15;;;;;;;0.77;0.77;;;-2.50;97.50;;;;;;4934602;29;20190;-63
2024/01/11 05:05:40;;;;;;;1.93;0.70;;;-2.50;97.60;;;;;;4934892;29;20234;-63
2024/01/11 05:08:06;;;;;;;0.77;0.77;;;-2.60;97.60;;;;;;4934788;29;20186;-63
2024/01/11 05:10:31;;;;;;;0.83;0.83;;;-2.50;97.80;;;;;;4934620;29;20212;-63
2024/01/11 05:12:57;;;;;;;4.63;2.80;;;-2.50;97.70;;;;;;4934713;29;20616;-63
2024/01/11 05:15:23;;;;;;;3.57;3.23;;;-2.50;97.60;;;;;;4934673;29;20198;-63
2024/01/11 05:17:48;;;;;;;0.60;0.60;;;-2.60;97.60;;;;;;4934611;29;20185;-63
2024/01/11 05:20:14;;;;;;;0.50;0.50;;;-2.60;97.80;;;;;;4934520;29;20660;-63
2024/01/11 05:22:40;;;;;;;1.05;1.05;;;-2.60;97.70;;;;;;4934339;29;20296;-63
2024/01/11 05:25:06;;;;;;;0.60;0.60;;;-2.50;97.60;;;;;;4935004;29;20227;-63
2024/01/11 05:27:32;;;;;;;1.27;1.07;;;-2.60;97.60;;;;;;4934346;29;20174;-63
2024/01/11 05:29:57;;;;;;;1.17;1.07;;;-2.60;97.60;;;;;;4934450;29;20908;-63
2024/01/11 05:32:23;;;;;;;1.53;1.50;;;-2.60;97.60;;;;;;4934269;29;20193;-63
2024/01/11 05:34:48;;;;;;;1.43;1.07;;;-2.60;97.60;;;;;;4934483;29;20715;-63
2024/01/11 05:37:14;;;;;;;10.40;1.80;;;-2.60;97.50;;;;;;4934263;29;20281;-63
2024/01/11 05:39:40;;;;;;;4.57;1.53;;;-2.60;97.70;;;;;;4934647;29;20535;-63
2024/01/11 05:42:06;;;;;;;1.87;1.77;;;-2.60;98.00;;;;;;4934117;29;20210;-63
2024/01/11 05:44:32;;;;;;;0.50;0.50;;;-2.50;98.10;;;;;;4934599;29;20721;-63
2024/01/11 05:46:57;;;;;;;0.98;0.98;;;-2.40;98.50;;;;;;4934353;29;20418;-64
2024/01/11 05:49:23;;;;;;;0.60;0.60;;;-2.40;98.60;;;;;;4934321;29;20206;-64
2024/01/11 05:51:49;;;;;;;0.97;0.97;;;-2.40;98.60;;;;;;4933757;29;20211;-64
2024/01/11 05:54:14;;;;;;;0.40;0.40;;;-2.40;98.70;;;;;;4934258;29;20256;-65
2024/01/11 05:56:40;;;;;;;1.43;0.83;;;-2.20;99.00;;;;;;4917345;29;20203;-64
2024/01/11 05:59:05;;;;;;;0.40;0.40;;;-2.20;98.80;;;;;;4914480;29;20186;-64
2024/01/11 06:01:31;;;;;;;0.77;0.77;;;-2.10;99.00;;;;;;4914941;29;20179;-64
2024/01/11 06:03:57;;;;;;;0.65;0.65;;;-2.00;99.00;;;;;;4915118;29;20202;-64
2024/01/11 06:06:23;;;;;;;2.33;2.13;;;-2.00;98.70;;;;;;4915061;29;20182;-64
2024/01/11 06:08:48;;;;;;;0.60;0.60;;;-2.20;98.30;;;;;;4914975;29;20230;-64
2024/01/11 06:11:14;;;;;;;0.40;0.40;;;-2.20;98.50;;;;;;4914864;29;20473;-64
2024/01/11 06:13:40;;;;;;;0.37;0.37;;;-2.00;98.80;;;;;;4915211;29;20254;-64
2024/01/11 06:16:07;;;;;;;2.15;2.05;;;-2.10;98.80;;;;;;4915054;29;20276;-65
2024/01/11 06:18:33;;;;;;;0.82;0.82;;;-2.10;98.70;;;;;;4914983;29;20179;-64
2024/01/11 06:20:58;;;;;;;0.80;0.80;;;-2.10;98.50;;;;;;4914663;29;20552;-65
2024/01/11 06:23:25;;;;;;;0.60;0.60;;;-2.10;98.60;;;;;;4914918;29;20194;-64
2024/01/11 06:25:50;;;;;;;0.40;0.40;;;-2.00;98.80;;;;;;4915062;29;20199;-64
2024/01/11 06:28:16;;;;;;;0.60;0.60;;;-1.90;98.80;;;;;;4915094;29;20179;-64
2024/01/11 06:30:43;;;;;;;2.77;1.80;;;-1.90;98.50;;;;;;4914770;29;20250;-64
2024/01/11 06:33:09;;;;;;;1.25;1.25;;;-2.00;98.20;;;;;;4914782;29;20214;-64
2024/01/11 06:35:34;;;;;;;0.50;0.50;;;-2.10;98.10;;;;;;4914840;29;20580;-64
2024/01/11 06:38:00;;;;;;;0.83;0.83;;;-2.20;98.00;;;;;;4915730;29;20171;-64
2024/01/11 06:40:26;;;;;;;0.67;0.67;;;-2.20;98.20;;;;;;4918480;29;20653;-64
2024/01/11 06:42:52;;;;;;;0.97;0.97;;;-2.20;97.80;;;;;;4918191;29;20516;-64
2024/01/11 06:45:18;;;;;;;0.47;0.47;;;-2.30;97.70;;;;;;4918862;29;20433;-64
2024/01/11 06:47:45;;;;;;;0.45;0.45;;;-2.30;97.60;;;;;;4918509;29;20186;-64
2024/01/11 06:50:12;;;;;;;1.73;1.63;;;-2.40;97.60;;;;;;4918045;29;20649;-64
2024/01/11 06:52:38;;;;;;;1.48;1.40;;;-2.30;97.60;;;;;;4918052;29;20278;-64
2024/01/11 06:55:04;;;;;;;1.23;1.23;;;-2.40;97.60;;;;;;4918156;29;20278;-64
2024/01/11 06:57:30;;;;;;;2.97;2.88;;;-2.40;97.70;;;;;;4918175;29;20182;-65
2024/01/11 06:59:56;;;;;;;1.10;1.10;;;-2.50;97.60;;;;;;4918167;29;20183;-65
2024/01/11 07:02:21;;;;;;;1.17;1.17;;;-2.60;97.50;;;;;;4917816;29;20281;-65
2024/01/11 07:04:47;;;;;;;1.90;1.80;;;-2.50;97.70;;;;;;4917858;29;20411;-65
2024/01/11 07:07:13;;;;;;;4.20;3.97;;;-2.50;97.50;;;;;;4918442;29;20183;-66
2024/01/11 07:09:39;;;;;;;1.07;1.07;;;-2.60;97.10;;;;;;4918029;29;20183;-66
2024/01/11 07:12:06;;;;;;;3.70;3.20;;;-2.60;97.10;;;;;;4917615;29;20227;-67
2024/01/11 07:14:31;;;;;;;0.75;0.75;;;-2.70;97.30;;;;;;4917937;29;20235;-66
2024/01/11 07:16:57;;;;;;;3.80;3.50;;;-2.70;97.00;;;;;;4917754;29;20206;-66
2024/01/11 07:19:23;;;;;;;0.60;0.60;;;-2.70;96.90;;;;;;4917683;29;20506;-66
2024/01/11 07:21:48;;;;;;;2.63;2.43;;;-2.80;96.80;;;;;;4917566;29;20179;-65
2024/01/11 07:24:15;;;;;;;0.90;0.90;;;-2.70;96.80;;;;;;4917730;29;20167;-66
2024/01/11 07:26:41;;;;;;;3.25;3.05;;;-2.80;96.70;;;;;;4917844;29;20676;-66
2024/01/11 07:29:07;;;;;;;2.55;2.45;;;-2.80;96.70;;;;;;4917702;29;20221;-66
2024/01/11 07:31:33;;;;;;;0.70;0.70;;;-2.80;96.50;;;;;;4917282;29;20614;-66
2024/01/11 07:33:59;;;;;;;2.93;2.30;;;-2.80;96.40;;;;;;4917396;29;20529;-66
2024/01/11 07:36:24;;;;;;;0.75;0.75;;;-2.80;96.30;;;;;;4917416;29;20290;-67
2024/01/11 07:38:50;;;;;;;2.20;1.80;;;-2.80;96.30;;;;;;4917623;29;20620;-66
2024/01/11 07:41:16;;;;;;;3.47;2.70;;;-2.80;96.30;;;;;;4917133;29;20171;-66
2024/01/11 07:43:43;;;;;;;1.63;1.30;;;-2.90;96.40;;;;;;4917307;29;20297;-66
2024/01/11 07:46:09;;;;;;;1.10;1.02;;;-2.80;96.60;;;;;;4917353;29;20175;-66
2024/01/11 07:48:34;;;;;;;3.50;3.30;;;-2.80;96.80;;;;;;4917072;29;20214;-66
2024/01/11 07:51:00;;;;;;;4.60;1.90;;;-2.90;96.80;;;;;;4916393;29;20206;-66
2024/01/11 07:53:26;;;;;;;1.13;1.13;;;-2.80;96.90;;;;;;4917223;29;20200;-66
2024/01/11 07:55:52;;;;;;;1.50;1.40;;;-2.80;96.80;;;;;;4917191;29;20614;-66
2024/01/11 07:58:18;;;;;;;1.98;1.88;;;-2.80;96.60;;;;;;4917161;29;20181;-66
2024/01/11 08:00:44;;;;;;;2.30;2.20;;;-2.80;96.70;;;;;;4916909;29;20273;-66
2024/01/11 08:03:10;;;;;;;1.45;1.38;;;-2.80;96.70;;;;;;4916673;29;20198;-67
2024/01/11 08:05:36;;;;;;;4.23;4.03;;;-2.80;96.70;;;;;;4917435;29;20239;-66
2024/01/11 08:08:03;;;;;;;0.60;0.60;;;-2.70;96.70;;;;;;4917012;29;20677;-66
2024/01/11 08:10:30;;;;;;;0.88;0.88;;;-2.80;96.50;;;;;;4916831;29;20274;-65
2024/01/11 08:12:56;;;;;;;4.43;4.00;;;-2.80;96.70;;;;;;4916584;29;20708;-65
2024/01/11 08:15:22;;;;;;;5.13;2.27;;;-2.70;96.60;;;;;;4916449;29;20242;-65
2024/01/11 08:17:48;;;;;;;1.17;1.17;;;-2.10;97.60;;;;;;4915376;29;20190;-65
2024/01/11 08:20:14;;;;;;;1.95;1.85;;;-0.70;99.90;;;;;;4916071;29;20828;-66
2024/01/11 08:22:41;;;;;;;2.47;2.37;;;1.10;99.90;;;;;;4916454;29;20303;-65
2024/01/11 08:25:07;;;;;;;4.15;3.15;;;2.60;95.60;;;;;;4916536;29;20191;-66
2024/01/11 08:27:33;;;;;;;6.05;2.60;;;3.90;91.70;;;;;;4916404;29;20187;-66
2024/01/11 08:30:00;;;;;;;1.83;1.77;;;4.80;86.60;;;;;;4916487;29;20203;-65
2024/01/11 08:32:26;;;;;;;6.53;3.60;;;5.50;82.70;;;;;;4915957;29;20650;-66
2024/01/11 08:34:52;;;;;;;4.25;4.05;;;5.80;79.30;;;;;;4916415;29;20175;-65
2024/01/11 08:37:17;;;;;;;2.30;2.10;;;5.90;75.50;;;;;;4916303;29;20307;-66
2024/01/11 08:39:43;;;;;;;2.50;1.93;;;5.90;74.40;;;;;;4916635;29;20178;-66
2024/01/11 08:42:09;;;;;;;2.47;2.37;;;5.70;73.40;;;;;;4916095;29;20297;-66
2024/01/11 08:44:34;;;;;;;3.33;1.93;;;5.50;73.40;;;;;;4916310;29;20179;-66
2024/01/11 08:47:00;;;;;;;4.07;2.03;;;5.40;73.70;;;;;;4916171;29;20175;-65
2024/01/11 08:49:26;;;;;;;6.60;5.33;;;5.10;74.70;;;;;;4916115;29;20173;-65
2024/01/11 08:51:51;;;;;;;5.00;4.50;;;5.00;74.30;;;;;;4915730;29;20183;-65
2024/01/11 08:54:20;;;;;;;6.27;3.83;;;4.80;74.40;;;;;;4916135;29;20175;-65
2024/01/11 08:56:47;;;;;;;8.80;3.88;;;4.50;75.10;;;;;;4915952;29;20244;-65
2024/01/11 08:59:12;;;;;;;7.07;3.42;;;4.60;76.60;;;;;;4915894;29;20182;-65
2024/01/11 09:01:39;;;;;;;6.47;4.80;;;4.90;75.80;;;;;;4914749;29;20178;-65
2024/01/11 09:04:05;;;;;;;5.55;3.22;;;5.30;74.80;;;;;;4920574;29;20741;-66
2024/01/11 09:06:32;;;;;;;3.95;3.60;;;5.70;73.90;;;;;;4929738;29;20220;-65
2024/01/11 09:08:57;;;;;;;3.17;2.75;;;6.00;72.40;;;;;;4934799;29;20205;-66
2024/01/11 09:11:23;;;;;;;3.60;2.50;;;6.30;72.00;;;;;;4934524;29;20679;-65
2024/01/11 09:13:48;;;;;;;3.67;2.60;;;6.70;71.30;;;;;;4934706;29;20284;-65
2024/01/11 09:16:16;;;;;;;3.90;2.47;;;7.00;70.90;;;;;;4934644;29;20293;-65
2024/01/11 09:18:43;;;;;;;7.03;3.00;;;7.30;69.70;;;;;;4934670;29;20171;-66
2024/01/11 09:21:09;;;;;;;2.87;2.10;;;7.80;68.00;;;;;;4934226;29;20410;-62
2024/01/11 09:23:35;;;;;;;2.93;2.33;;;8.70;68.00;;;;;;4934805;29;20430;-66
2024/01/11 09:26:00;;;;;;;4.57;3.23;;;9.20;65.30;;;;;;4934724;29;20688;-65
2024/01/11 09:28:26;;;;;;;5.90;2.83;;;9.70;63.50;;;;;;4934615;29;20449;-64
2024/01/11 09:30:52;;;;;;;5.10;4.00;;;10.00;59.40;;;;;;4934352;29;20660;-65
2024/01/11 09:33:17;;;;;;;4.33;3.13;;;10.20;58.80;;;;;;4934008;29;20204;-64
2024/01/11 09:35:43;;;;;;;3.10;2.80;;;10.50;57.90;;;;;;4934311;29;20492;-65
2024/01/11 09:38:09;;;;;;;2.60;2.40;;;10.90;57.00;;;;;;4934491;29;20174;-66
2024/01/11 09:40:34;;;;;;;2.17;2.07;;;11.20;55.60;;;;;;4934230;29;20175;-66
2024/01/11 09:43:04;;;;;;;3.43;3.13;;;11.40;54.50;;;;;;4933988;29;20574;-66
2024/01/11 09:45:30;;;;;;;2.70;2.10;;;11.80;54.40;;;;;;4934556;29;20195;-67
2024/01/11 09:47:56;;;;;;;6.27;3.67;;;12.40;52.90;;;;;;4934330;29;20817;-66
2024/01/11 09:50:23;;;;;;;6.43;3.20;;;13.20;51.40;;;;;;4934244;29;20265;-66
2024/01/11 09:52:50;;;;;;;8.13;4.10;;;13.70;50.60;;;;;;4933862;29;20442;-64
2024/01/11 09:55:17;;;;;;;3.83;3.00;;;14.50;49.50;;;;;;4916290;29;20407;-66
2024/01/11 09:57:53;;;;;;;4.53;2.73;;;15.00;47.00;;;;;;4915045;29;20464;-64
2024/01/11 10:00:23;;;;;;;2.20;1.93;;;15.20;45.70;;;;;;4915248;29;20463;-63
2024/01/11 10:02:49;;;;;;;3.03;2.80;;;15.20;44.90;;;;;;4915096;29;20472;-63
2024/01/11 10:05:17;;;;;;;2.30;2.10;;;15.40;44.80;;;;;;4924245;29;20441;-63
2024/01/11 10:07:42;;;;;;;2.10;1.90;;;15.70;44.10;;;;;;4934066;29;20427;-63
2024/01/11 10:10:09;;;;;;;3.73;2.70;;;16.00;43.70;;;;;;4922329;29;20389;-63
2024/01/11 10:12:35;;;;;;;3.33;2.57;;;15.80;43.70;;;;;;4914988;29;20218;-63
2024/01/11 10:15:24;;;;;;;3.37;2.60;;;16.10;43.50;;;;;;4918939;29;20467;-65
2024/01/11 10:17:49;;;;;;;3.27;2.43;;;15.90;42.40;;;;;;4918910;29;20569;-65
2024/01/11 10:20:16;;;;;;;4.40;3.20;;;15.10;43.30;;;;;;4918699;29;20472;-64
2024/01/11 10:22:43;;;;;;;5.00;3.00;;;14.90;44.30;;;;;;4918422;29;20588;-65
2024/01/11 10:25:12;;;;;;;5.70;3.03;;;15.00;44.30;;;;;;4918759;29;20382;-65
2024/01/11 10:27:43;;;;;;;7.50;3.77;;;14.80;43.80;;;;;;4918653;29;20388;-64
2024/01/11 10:30:13;;;;;;;3.50;2.17;;;14.30;44.30;;;;;;4918558;29;20465;-64
2024/01/11 10:32:39;;;;;;;4.57;2.90;;;14.30;45.40;;;;;;4918423;29;20426;-64
2024/01/11 10:35:05;;;;;;;2.17;1.97;;;14.40;45.20;;;;;;4918587;29;20418;-65
2024/01/11 10:37:34;;;;;;;5.13;2.50;;;14.60;45.20;;;;;;4918450;29;20432;-65
2024/01/11 10:40:12;;;;;;;5.63;3.50;;;14.50;44.90;;;;;;4918335;29;20466;-64
2024/01/11 10:42:46;;;;;;;3.70;2.97;;;14.30;45.40;;;;;;4918093;29;20466;-63
2024/01/11 10:45:19;;;;;;;4.43;3.60;;;14.10;45.70;;;;;;4918463;29;20421;-64
2024/01/11 10:48:01;;;;;;;3.70;2.97;;;13.90;46.30;;;;;;4918223;29;20421;-65
2024/01/11 10:50:32;;;;;;;3.67;2.33;;;13.10;47.10;;;;;;4918242;29;20421;-64
2024/01/11 10:53:04;;;;;;;3.70;3.40;;;12.70;49.00;;;;;;4918238;29;20446;-64
2024/01/11 10:55:34;;;;;;;5.33;1.77;;;12.30;49.30;;;;;;4918291;29;20466;-64
2024/01/11 10:58:01;;;;;;;2.40;1.80;;;11.60;49.60;;;;;;4918262;29;20945;-64
2024/01/11 11:00:28;;;;;;;1.93;1.20;;;10.80;49.60;;;;;;4918040;29;20501;-64
2024/01/11 11:02:55;;;;;;;0.90;0.90;;;10.40;51.00;;;;;;4918117;29;20434;-65
2024/01/11 11:05:22;;;;;;;0.73;0.73;;;10.10;53.20;;;;;;4918188;29;20419;-64
2024/01/11 11:07:50;;;;;;;1.23;0.65;;;9.70;53.10;;;;;;4918069;29;20435;-64
2024/01/11 11:10:19;;;;;;;1.20;0.70;;;9.10;55.80;;;;;;4917906;29;20179;-64
2024/01/11 11:12:46;;;;;;;1.25;0.85;;;9.00;57.30;;;;;;4917745;29;20198;-64
2024/01/11 11:15:12;;;;;;;0.80;0.80;;;8.60;56.70;;;;;;4917945;29;20175;-64
2024/01/11 11:17:39;;;;;;;1.15;0.77;;;8.50;56.80;;;;;;4917918;29;20205;-64
2024/01/11 11:20:13;;;;;;;0.50;0.50;;;8.20;56.90;;;;;;4917718;29;20222;-64
2024/01/11 11:22:42;;;;;;;1.02;0.90;;;7.90;58.40;;;;;;4917718;29;20199;-64
2024/01/11 11:25:23;;;;;;;1.20;1.10;;;7.70;58.50;;;;;;4916833;29;20585;-64
2024/01/11 11:27:49;;;;;;;0.75;0.63;;;7.40;61.40;;;;;;4917764;29;20258;-64
2024/01/11 11:30:14;;;;;;;0.40;0.40;;;7.20;63.30;;;;;;4916641;29;20717;-64
2024/01/11 11:32:43;;;;;;;0.40;0.40;;;7.10;65.00;;;;;;4917461;29;20220;-64
2024/01/11 11:35:09;;;;;;;0.50;0.50;;;7.10;65.50;;;;;;4917521;29;20550;-64
2024/01/11 11:37:39;;;;;;;0.80;0.80;;;6.90;65.40;;;;;;4917472;29;20190;-64
2024/01/11 11:40:10;;;;;;;0.77;0.77;;;7.00;65.30;;;;;;4929343;29;20253;-64
2024/01/11 11:42:36;;;;;;;2.08;1.20;;;7.00;65.40;;;;;;4919510;29;20222;-65
2024/01/11 11:45:02;;;;;;;0.57;0.57;;;7.10;66.10;;;;;;4915545;29;20533;-64
2024/01/11 11:47:37;;;;;;;0.50;0.43;;;7.00;66.10;;;;;;4918413;29;20191;-64
2024/01/11 11:50:10;;;;;;;1.60;0.73;;;6.90;67.00;;;;;;4936089;29;20443;-64
2024/01/11 11:52:41;;;;;;;0.50;0.50;;;6.80;65.60;;;;;;4936242;29;20216;-64
2024/01/11 11:55:08;;;;;;;0.50;0.50;;;6.70;65.20;;;;;;4936174;29;20190;-64
2024/01/11 11:57:35;;;;;;;0.63;0.63;;;6.40;65.90;;;;;;4936191;29;20582;-64
2024/01/11 12:00:07;;;;;;;1.02;1.02;;;6.10;66.70;;;;;;4936157;29;20250;-64
2024/01/11 12:02:35;;;;;;;0.50;0.50;;;6.00;67.20;;;;;;4936307;29;20212;-64
2024/01/11 12:05:03;;;;;;;0.93;0.50;;;5.80;68.80;;;;;;4936111;29;20262;-64
2024/01/11 12:07:31;;;;;;;1.42;1.30;;;5.60;69.70;;;;;;4936180;29;20354;-64
2024/01/11 12:09:56;;;;;;;0.88;0.82;;;5.50;70.20;;;;;;4935928;29;20181;-63
2024/01/11 12:12:23;;;;;;;0.93;0.70;;;5.50;71.40;;;;;;4935615;29;20584;-64
2024/01/11 12:14:49;;;;;;;3.22;1.88;;;5.40;72.60;;;;;;4935838;29;20177;-64
2024/01/11 12:17:15;;;;;;;5.20;1.25;;;5.40;73.10;;;;;;4935672;29;20206;-64
2024/01/11 12:19:42;;;;;;;3.03;2.67;;;5.20;73.10;;;;;;4936025;29;20254;-64
2024/01/11 12:22:07;;;;;;;0.50;0.50;;;5.10;73.20;;;;;;4935600;29;20628;-64
2024/01/11 12:24:33;;;;;;;3.40;1.27;;;5.00;72.20;;;;;;4935747;29;20170;-64
2024/01/11 12:27:02;;;;;;;0.60;0.60;;;4.80;72.10;;;;;;4935710;29;20602;-64
2024/01/11 12:29:31;;;;;;;0.90;0.90;;;4.60;71.90;;;;;;4935544;29;20415;-64
2024/01/11 12:31:58;;;;;;;0.40;0.40;;;4.70;72.50;;;;;;4935115;29;20187;-64
2024/01/11 12:34:25;;;;;;;0.60;0.60;;;4.70;73.60;;;;;;4935596;29;20198;-64
2024/01/11 12:36:53;;;;;;;0.77;0.77;;;4.70;73.10;;;;;;4935339;29;20207;-64
2024/01/11 12:39:22;;;;;;;1.45;1.35;;;4.60;71.90;;;;;;4935419;29;20649;-64
2024/01/11 12:41:50;;;;;;;0.90;0.90;;;4.60;71.80;;;;;;4935228;29;20194;-64
2024/01/11 12:44:19;;;;;;;0.60;0.60;;;4.60;71.90;;;;;;4935305;29;20211;-64
2024/01/11 12:46:47;;;;;;;0.50;0.40;;;4.50;72.40;;;;;;4935241;29;20202;-64